Time;durP1;ratioP1;P1;durP2;ratioP2;P2;SDS_P1;SDS_P2;PMS_P1;PMS_P2;Temp;Humidity;BMP_temperature;BMP_pressure;BME280_temperature;BME280_humidity;BME280_pressure;Samples;Min_cycle;Max_cycle;Signal;HPM_P1;HPM_P2
2022/08/14 00:01:15;;;;;;;;;5.00;4.50;;;;;28.41;19.85;100330.94;5081284;28;46247;-57
2022/08/14 00:03:41;;;;;;;;;9.00;8.25;;;;;28.38;19.76;100321.28;5065798;27;45250;-58
2022/08/14 00:06:07;;;;;;;;;4.50;4.50;;;;;28.37;19.97;100328.50;5061420;28;45243;-58
2022/08/14 00:08:32;;;;;;;;;7.00;7.00;;;;;28.35;19.55;100317.03;5061713;28;45220;-58
2022/08/14 00:10:58;;;;;;;;;6.75;6.75;;;;;28.29;19.48;100312.22;5061314;28;45335;-58
2022/08/14 00:13:28;;;;;;;;;8.50;6.50;;;;;28.31;19.76;100306.66;5061401;28;45283;-58
2022/08/14 00:15:56;;;;;;;;;9.00;8.00;;;;;28.30;19.94;100307.66;5061018;28;45272;-58
2022/08/14 00:18:23;;;;;;;;;6.75;6.00;;;;;28.28;19.84;100302.41;5059900;28;45396;-58
2022/08/14 00:20:49;;;;;;;;;5.75;5.75;;;;;28.27;19.68;100299.84;5059692;28;45576;-58
2022/08/14 00:23:16;;;;;;;;;6.50;6.50;;;;;28.25;19.63;100293.72;5060922;28;45371;-58
2022/08/14 00:25:47;;;;;;;;;6.00;5.25;;;;;28.19;20.26;100278.97;5061165;28;45394;-58
2022/08/14 00:28:13;;;;;;;;;5.75;5.25;;;;;28.20;19.72;100276.13;5077465;28;45686;-58
2022/08/14 00:30:39;;;;;;;;;5.00;5.00;;;;;28.19;19.97;100281.69;5070013;28;47252;-57
2022/08/14 00:33:04;;;;;;;;;4.50;4.50;;;;;28.16;19.74;100273.84;5060977;28;45381;-58
2022/08/14 00:35:31;;;;;;;;;6.00;4.25;;;;;28.07;20.15;100264.78;5067169;28;45687;-58
2022/08/14 00:37:56;;;;;;;;;6.75;6.75;;;;;28.12;20.39;100270.59;5060947;28;45643;-57
2022/08/14 00:40:23;;;;;;;;;5.25;5.25;;;;;28.10;19.53;100264.50;5060844;28;45988;-58
2022/08/14 00:42:48;;;;;;;;;4.00;4.00;;;;;28.09;20.43;100275.44;5060065;28;45382;-58
2022/08/14 00:45:15;;;;;;;;;6.00;6.00;;;;;28.05;19.90;100275.75;5060705;28;45449;-58
2022/08/14 00:47:43;;;;;;;;;3.00;3.00;;;;;28.05;20.18;100280.31;5060612;28;45484;-58
2022/08/14 00:50:12;;;;;;;;;4.75;4.75;;;;;28.02;20.09;100275.16;5059312;28;46995;-58
2022/08/14 00:52:37;;;;;;;;;3.75;3.75;;;;;28.00;19.71;100269.03;5077806;28;45313;-58
2022/08/14 00:55:06;;;;;;;;;5.50;4.75;;;;;27.98;20.33;100277.28;5081026;28;45495;-58
2022/08/14 00:57:34;;;;;;;;;6.00;5.00;;;;;27.95;19.93;100263.22;5080927;28;45567;-58
2022/08/14 00:59:59;;;;;;;;;4.25;4.00;;;;;27.93;20.52;100263.38;5080319;28;46237;-58
2022/08/14 01:02:26;;;;;;;;;4.50;4.50;;;;;27.88;20.52;100260.28;5068378;28;45285;-58
2022/08/14 01:04:56;;;;;;;;;5.75;5.75;;;;;27.86;20.08;100257.72;5072865;28;45413;-58
2022/08/14 01:07:25;;;;;;;;;5.00;3.75;;;;;27.79;20.20;100247.66;5080604;28;45260;-58
2022/08/14 01:09:52;;;;;;;;;5.00;5.00;;;;;27.80;20.01;100247.50;5080732;28;46165;-58
2022/08/14 01:12:19;;;;;;;;;6.75;6.00;;;;;27.77;20.79;100242.38;5080559;28;45326;-58
2022/08/14 01:14:54;;;;;;;;;5.75;5.75;;;;;27.73;20.66;100236.47;5080583;27;45153;-58
2022/08/14 01:17:20;;;;;;;;;5.75;5.75;;;;;27.72;20.70;100229.34;5080403;28;45399;-58
2022/08/14 01:22:30;;;;;;;;;5.00;5.00;;;;;27.66;20.52;100218.28;5079568;28;45354;-58
2022/08/14 01:24:56;;;;;;;;;4.25;4.25;;;;;27.66;20.64;100218.28;5080582;28;45238;-58
2022/08/14 01:27:23;;;;;;;;;4.00;4.00;;;;;27.62;20.61;100215.00;5080603;28;45267;-58
2022/08/14 01:29:53;;;;;;;;;5.50;4.75;;;;;27.60;20.39;100217.03;5080115;27;47146;-58
2022/08/14 01:32:20;;;;;;;;;5.50;5.50;;;;;27.56;20.84;100208.38;5080364;28;45330;-58
2022/08/14 01:34:52;;;;;;;;;5.25;5.25;;;;;27.53;20.65;100215.91;5079102;28;45436;-58
2022/08/14 01:37:22;;;;;;;;;5.25;5.25;;;;;27.51;20.35;100213.34;5066424;28;45324;-57
2022/08/14 01:39:47;;;;;;;;;7.00;6.00;;;;;27.51;21.03;100213.34;5079850;28;47043;-58
2022/08/14 01:42:13;;;;;;;;;4.75;4.75;;;;;27.47;21.05;100211.94;5080172;28;45195;-58
2022/08/14 01:44:38;;;;;;;;;6.75;6.75;;;;;27.41;21.15;100210.66;5080061;28;45305;-58
2022/08/14 01:47:11;;;;;;;;;5.00;5.00;;;;;27.43;20.95;100215.06;5080262;28;45459;-58
2022/08/14 01:49:36;;;;;;;;;5.25;5.25;;;;;27.40;20.78;100216.19;5078709;28;46163;-57
2022/08/14 01:52:02;;;;;;;;;6.00;6.00;;;;;27.38;21.15;100215.44;5073093;28;45234;-58
2022/08/14 01:54:27;;;;;;;;;6.50;4.75;;;;;27.34;20.80;100208.66;5082003;28;45223;-57
2022/08/14 01:56:55;;;;;;;;;7.75;5.50;;;;;27.34;20.83;100216.75;5083850;28;45501;-57
2022/08/14 01:59:27;;;;;;;;;4.75;4.75;;;;;27.31;20.98;100208.91;5082912;28;45548;-56
2022/08/14 02:01:55;;;;;;;;;5.00;5.00;;;;;27.29;20.69;100205.53;5082909;28;45224;-54
2022/08/14 02:04:23;;;;;;;;;4.75;4.75;;;;;27.25;21.11;100205.81;5063498;28;45283;-55
2022/08/14 02:06:50;;;;;;;;;4.00;4.00;;;;;27.21;20.84;100204.41;5063242;28;45468;-52
2022/08/14 02:09:17;;;;;;;;;6.50;5.00;;;;;27.21;21.04;100204.41;5063225;28;47207;-54
2022/08/14 02:11:44;;;;;;;;;4.75;4.75;;;;;27.18;20.77;100204.69;5063229;28;45303;-57
2022/08/14 02:14:11;;;;;;;;;5.75;4.50;;;;;27.17;21.34;100196.72;5063128;28;45438;-57
2022/08/14 02:16:40;;;;;;;;;4.00;4.00;;;;;27.16;20.70;100192.34;5063059;28;45362;-57
2022/08/14 02:19:09;;;;;;;;;4.00;4.00;;;;;27.12;21.36;100191.78;5063105;28;45336;-57
2022/08/14 02:21:35;;;;;;;;;4.00;4.00;;;;;27.12;21.38;100191.78;5062953;28;45352;-58
2022/08/14 02:24:03;;;;;;;;;4.75;4.75;;;;;27.12;21.55;100189.09;5063071;28;45477;-58
2022/08/14 02:26:31;;;;;;;;;3.50;3.50;;;;;27.10;21.54;100182.97;5062789;28;45323;-58
2022/08/14 02:29:00;;;;;;;;;4.25;4.25;;;;;27.07;20.84;100184.13;5062689;28;46430;-58
2022/08/14 02:31:31;;;;;;;;;3.75;3.75;;;;;27.05;21.10;100177.16;5062703;28;45327;-57
2022/08/14 02:33:58;;;;;;;;;5.25;5.25;;;;;27.04;21.52;100175.47;5063045;28;45248;-57
2022/08/14 02:36:24;;;;;;;;;5.00;5.00;;;;;27.02;21.49;100172.03;5062829;28;45226;-57
2022/08/14 02:38:50;;;;;;;;;4.00;4.00;;;;;27.02;21.57;100178.31;5061390;28;45487;-57
2022/08/14 02:41:16;;;;;;;;;4.25;4.25;;;;;27.01;20.82;100171.19;5062568;28;45327;-57
2022/08/14 02:43:42;;;;;;;;;4.75;4.75;;;;;26.99;21.61;100165.09;5062646;28;45324;-57
2022/08/14 02:46:09;;;;;;;;;4.00;4.00;;;;;26.98;21.19;100158.03;5062233;28;45287;-57
2022/08/14 02:48:39;;;;;;;;;4.75;4.75;;;;;26.96;21.12;100160.00;5062682;28;45316;-57
2022/08/14 02:51:11;;;;;;;;;3.75;3.75;;;;;26.93;21.61;100150.34;5067819;28;45306;-57
2022/08/14 02:53:43;;;;;;;;;5.00;4.00;;;;;26.91;21.60;100143.41;5083170;28;45233;-57
2022/08/14 02:56:18;;;;;;;;;6.25;5.50;;;;;26.91;21.14;100140.72;5082995;28;45350;-57
2022/08/14 02:58:45;;;;;;;;;6.75;6.00;;;;;26.87;21.21;100144.69;5082401;28;47031;-57
2022/08/14 03:01:14;;;;;;;;;5.25;3.25;;;;;26.88;21.33;100151.75;5082581;28;45365;-57
2022/08/14 03:03:40;;;;;;;;;6.50;5.00;;;;;26.85;21.88;100158.28;5067108;27;45186;-57
2022/08/14 03:06:07;;;;;;;;;4.50;4.50;;;;;26.82;21.70;100161.28;5061984;28;45313;-57
2022/08/14 03:08:34;;;;;;;;;4.75;4.75;;;;;26.80;21.44;100157.88;5060972;28;47197;-57
2022/08/14 03:11:05;;;;;;;;;4.00;4.00;;;;;26.79;21.98;100166.94;5062290;28;45496;-54
2022/08/14 03:13:34;;;;;;;;;5.00;5.00;;;;;26.77;21.53;100163.56;5062245;28;45509;-54
2022/08/14 03:16:02;;;;;;;;;4.75;4.75;;;;;26.76;21.66;100164.53;5061947;28;45244;-54
2022/08/14 03:18:27;;;;;;;;;5.00;5.00;;;;;26.74;22.09;100172.78;5062132;28;46078;-53
2022/08/14 03:20:53;;;;;;;;;8.75;5.00;;;;;26.74;22.16;100169.19;5062022;28;45178;-54
2022/08/14 03:23:19;;;;;;;;;6.00;6.00;;;;;26.73;21.80;100167.50;5075107;28;45203;-55
2022/08/14 03:25:45;;;;;;;;;4.50;4.50;;;;;26.72;21.59;100165.78;5060998;28;45280;-54
2022/08/14 03:28:11;;;;;;;;;5.00;5.00;;;;;26.70;21.76;100162.38;5061942;28;46144;-54
2022/08/14 03:30:37;;;;;;;;;4.75;4.75;;;;;26.69;21.58;100155.28;5061684;28;45593;-54
2022/08/14 03:33:03;;;;;;;;;5.50;5.00;;;;;26.69;22.08;100161.53;5062025;28;45267;-53
2022/08/14 03:35:29;;;;;;;;;4.25;4.25;;;;;26.67;22.21;100160.81;5062090;28;45438;-54
2022/08/14 03:38:03;;;;;;;;;4.25;4.25;;;;;26.67;22.05;100162.66;5061691;28;47001;-54
2022/08/14 03:40:28;;;;;;;;;6.25;6.25;;;;;26.66;22.33;100163.66;5060813;28;45337;-53
2022/08/14 03:42:53;;;;;;;;;7.50;6.00;;;;;26.65;22.26;100168.16;5075955;28;45319;-51
2022/08/14 03:45:19;;;;;;;;;6.00;6.00;;;;;26.64;22.18;100174.56;5060213;28;45693;-55
2022/08/14 03:47:44;;;;;;;;;3.00;3.00;;;;;26.64;22.15;100171.00;5080468;28;46568;-51
2022/08/14 03:50:10;;;;;;;;;4.50;4.50;;;;;26.63;22.37;100183.66;5075588;28;45264;-52
2022/08/14 03:52:41;;;;;;;;;5.00;5.00;;;;;26.63;21.61;100190.84;5079894;28;45279;-53
2022/08/14 03:55:10;;;;;;;;;6.75;5.00;;;;;26.60;21.62;100184.78;5081943;28;45517;-53
2022/08/14 03:57:35;;;;;;;;;5.00;5.00;;;;;26.58;21.84;100186.75;5081548;28;46595;-54
2022/08/14 04:00:09;;;;;;;;;4.00;4.00;;;;;26.57;21.91;100190.44;5081431;28;45224;-54
2022/08/14 04:02:35;;;;;;;;;5.00;5.00;;;;;26.57;22.10;100195.81;5075164;28;45246;-53
2022/08/14 04:05:00;;;;;;;;;5.00;5.00;;;;;26.55;22.29;100197.81;5061301;28;45500;-54
2022/08/14 04:07:26;;;;;;;;;5.75;5.00;;;;;26.55;22.45;100200.50;5063457;28;47231;-54
2022/08/14 04:09:52;;;;;;;;;5.25;5.25;;;;;26.55;22.50;100196.94;5061526;28;45282;-53
2022/08/14 04:12:18;;;;;;;;;6.25;6.00;;;;;26.53;21.79;100194.41;5061452;28;45597;-53
2022/08/14 04:14:44;;;;;;;;;5.50;4.50;;;;;26.51;22.01;100196.38;5061019;28;45308;-53
2022/08/14 04:17:10;;;;;;;;;5.75;5.75;;;;;26.47;22.41;100194.94;5060088;28;46201;-54
2022/08/14 04:19:36;;;;;;;;;6.25;6.00;;;;;26.43;22.02;100194.38;5061230;28;45508;-53
2022/08/14 04:22:02;;;;;;;;;6.00;6.00;;;;;26.40;22.52;100209.94;5061390;28;45367;-54
2022/08/14 04:24:27;;;;;;;;;7.25;6.75;;;;;26.34;22.68;100211.38;5060960;28;45327;-55
2022/08/14 04:26:53;;;;;;;;;5.75;5.75;;;;;26.31;22.76;100210.78;5061190;28;46937;-55
2022/08/14 04:29:19;;;;;;;;;6.00;6.00;;;;;26.25;22.75;100196.00;5060455;28;45447;-54
2022/08/14 04:31:45;;;;;;;;;6.75;6.50;;;;;26.21;22.27;100199.97;5061062;28;45412;-53
2022/08/14 04:34:12;;;;;;;;;6.00;5.50;;;;;26.17;22.43;100187.78;5060999;28;45360;-54
2022/08/14 04:43:34;;;;;;;;;6.00;5.25;;;;;26.12;22.44;100190.88;5060769;28;46102;-54
2022/08/14 04:44:51;;;;;;;;;5.25;5.25;;;;;26.00;22.48;100173.06;5060726;28;45236;-54
2022/08/14 04:50:02;;;;;;;;;5.75;5.75;;;;;25.85;22.71;100154.63;5060929;28;45217;-54
2022/08/14 04:52:28;;;;;;;;;5.50;5.50;;;;;25.89;23.13;100160.59;5077782;28;45274;-54
2022/08/14 04:54:53;;;;;;;;;6.25;6.25;;;;;25.86;22.87;100158.16;5080905;28;47774;-54
2022/08/14 04:57:18;;;;;;;;;6.00;6.00;;;;;25.78;23.02;100153.44;5080813;28;46107;-57
2022/08/14 04:59:44;;;;;;;;;6.00;6.00;;;;;25.73;22.57;100139.56;5080476;28;45452;-56
2022/08/14 05:02:09;;;;;;;;;5.00;5.00;;;;;25.79;22.72;100156.00;5077412;28;45453;-54
2022/08/14 05:04:35;;;;;;;;;7.75;6.25;;;;;25.78;23.19;100151.59;5060499;28;53267;-55
2022/08/14 05:07:01;;;;;;;;;4.50;4.50;;;;;25.76;23.11;100139.25;5060335;28;45343;-55
2022/08/14 05:09:27;;;;;;;;;5.00;3.75;;;;;25.75;22.73;100143.81;5060372;28;45252;-55
2022/08/14 05:11:52;;;;;;;;;7.00;5.00;;;;;25.75;23.22;100137.59;5060612;28;45386;-54
2022/08/14 05:14:21;;;;;;;;;6.25;6.25;;;;;25.72;22.91;100151.28;5060205;28;45325;-54
2022/08/14 05:16:47;;;;;;;;;4.00;4.00;;;;;25.71;22.93;100155.84;5059976;28;46309;-55
2022/08/14 05:19:12;;;;;;;;;4.75;4.75;;;;;25.70;23.26;100153.25;5060091;28;45426;-55
2022/08/14 05:21:41;;;;;;;;;7.00;5.00;;;;;25.68;23.28;100150.72;5060300;28;45168;-55
2022/08/14 05:24:09;;;;;;;;;5.00;5.00;;;;;25.66;23.21;100152.69;5060236;28;45306;-55
2022/08/14 05:26:35;;;;;;;;;6.75;5.75;;;;;25.64;23.59;100163.56;5059825;28;45389;-55
2022/08/14 05:29:00;;;;;;;;;7.00;6.25;;;;;25.62;23.44;100162.88;5059805;28;45231;-53
2022/08/14 05:31:26;;;;;;;;;6.75;6.75;;;;;25.58;23.59;100161.41;5060050;28;45203;-54
2022/08/14 05:33:52;;;;;;;;;8.50;7.75;;;;;25.56;23.42;100151.78;5060285;28;45281;-55
2022/08/14 05:36:18;;;;;;;;;7.00;7.00;;;;;25.51;23.69;100152.19;5059818;28;46153;-55
2022/08/14 05:38:46;;;;;;;;;5.75;5.75;;;;;25.47;23.59;100159.66;5060112;28;45250;-54
2022/08/14 05:41:15;;;;;;;;;6.50;6.50;;;;;25.44;23.46;100154.53;5060070;28;45280;-55
2022/08/14 05:43:46;;;;;;;;;7.50;6.50;;;;;25.34;23.75;100153.59;5059797;28;45225;-55
2022/08/14 05:46:14;;;;;;;;;7.25;6.50;;;;;25.36;23.67;100162.44;5059658;28;46356;-54
2022/08/14 05:48:39;;;;;;;;;6.25;5.50;;;;;25.30;23.95;100150.31;5059868;28;45272;-55
2022/08/14 05:51:05;;;;;;;;;6.25;5.25;;;;;25.26;23.63;100150.72;5065248;28;45437;-55
2022/08/14 05:53:31;;;;;;;;;7.50;6.75;;;;;25.24;24.06;100145.47;5080258;28;45238;-54
2022/08/14 05:55:57;;;;;;;;;6.75;5.50;;;;;25.22;23.88;100150.13;5079849;28;46077;-56
2022/08/14 05:58:23;;;;;;;;;6.50;6.25;;;;;25.20;24.19;100143.19;5079907;28;45517;-57
2022/08/14 06:00:49;;;;;;;;;5.00;5.00;;;;;25.17;23.95;100147.00;5079681;28;45564;-57
2022/08/14 06:03:17;;;;;;;;;6.50;5.00;;;;;25.15;24.21;100139.03;5059878;28;45335;-57
2022/08/14 06:05:45;;;;;;;;;7.00;7.00;;;;;25.12;24.22;100135.78;5059533;28;45363;-57
2022/08/14 06:08:17;;;;;;;;;6.75;6.00;;;;;25.10;24.23;100138.56;5059762;28;45255;-58
2022/08/14 06:10:43;;;;;;;;;6.00;6.00;;;;;25.09;24.39;100149.47;5065829;28;45356;-57
2022/08/14 06:13:08;;;;;;;;;5.00;5.00;;;;;25.07;24.38;100143.38;5065900;27;45771;-57
2022/08/14 06:15:34;;;;;;;;;7.00;7.00;;;;;25.04;24.38;100141.78;5059445;28;45328;-57
2022/08/14 06:17:59;;;;;;;;;7.00;5.25;;;;;25.02;24.39;100141.09;5059416;28;45303;-57
2022/08/14 06:20:26;;;;;;;;;5.00;5.00;;;;;25.00;24.40;100132.28;5060028;28;45165;-57
2022/08/14 06:22:51;;;;;;;;;6.00;6.00;;;;;24.97;24.50;100125.34;5059452;28;45177;-57
2022/08/14 06:25:17;;;;;;;;;4.50;4.50;;;;;24.96;24.27;100125.47;5059212;28;46063;-57
2022/08/14 06:27:44;;;;;;;;;6.50;5.75;;;;;24.97;24.64;100127.19;5059353;28;45255;-57
2022/08/14 06:30:12;;;;;;;;;5.50;5.50;;;;;24.96;24.72;100134.38;5059545;28;45366;-57
2022/08/14 06:32:38;;;;;;;;;5.00;5.00;;;;;24.95;25.04;100139.88;5058995;28;45490;-57
2022/08/14 06:35:05;;;;;;;;;4.50;4.50;;;;;24.92;25.16;100145.53;5059416;28;45960;-57
2022/08/14 06:37:48;;;;;;;;;5.50;5.50;;;;;24.92;24.56;100140.16;5069546;28;45238;-58
2022/08/14 06:40:16;;;;;;;;;4.25;4.25;;;;;24.87;24.93;100143.22;5060772;28;45305;-58
2022/08/14 06:42:41;;;;;;;;;8.50;6.00;;;;;24.86;25.36;100146.06;5062591;28;45398;-58
2022/08/14 06:45:08;;;;;;;;;7.00;7.00;;;;;24.81;25.23;100141.91;5061074;28;48472;-58
2022/08/14 06:47:39;;;;;;;;;8.00;7.50;;;;;24.79;25.62;100145.69;5062564;28;45283;-58
2022/08/14 06:50:07;;;;;;;;;8.00;7.75;;;;;24.77;25.58;100151.19;5062614;28;45328;-58
2022/08/14 06:52:33;;;;;;;;;5.75;5.75;;;;;24.76;25.33;100144.13;5079355;28;46029;-57
2022/08/14 06:54:58;;;;;;;;;7.00;6.25;;;;;24.73;25.35;100149.75;5071869;28;45239;-55
2022/08/14 06:57:24;;;;;;;;;8.25;8.25;;;;;24.73;25.54;100151.56;5062552;28;45242;-55
2022/08/14 06:59:50;;;;;;;;;5.00;5.00;;;;;24.72;25.57;100160.63;5061051;28;45450;-56
2022/08/14 07:07:43;;;;;;;;;7.00;7.00;;;;;24.64;25.82;100167.50;5062526;28;45186;-58
2022/08/14 07:10:09;;;;;;;;;7.00;6.50;;;;;24.62;26.17;100177.47;5062421;28;45616;-58
2022/08/14 07:12:35;;;;;;;;;6.25;5.75;;;;;24.63;26.24;100168.44;5062521;28;45236;-57
2022/08/14 07:15:01;;;;;;;;;8.00;6.75;;;;;24.62;26.32;100182.84;5060544;28;47579;-57
2022/08/14 07:17:26;;;;;;;;;5.25;5.25;;;;;24.63;26.23;100171.13;5062232;28;45364;-57
2022/08/14 07:19:52;;;;;;;;;4.00;4.00;;;;;24.57;26.42;100166.25;5062387;28;45335;-57
2022/08/14 07:22:17;;;;;;;;;4.00;4.00;;;;;24.62;26.23;100168.56;5062174;28;45509;-58
2022/08/14 07:24:43;;;;;;;;;6.00;4.50;;;;;24.63;26.53;100181.88;5061801;28;46071;-58
2022/08/14 07:27:08;;;;;;;;;6.75;5.75;;;;;24.60;27.04;100176.75;5066108;28;45307;-58
2022/08/14 07:29:33;;;;;;;;;6.00;5.25;;;;;24.60;26.48;100170.50;5061956;28;45451;-58
2022/08/14 07:31:59;;;;;;;;;8.50;7.75;;;;;24.64;26.81;100167.50;5061988;28;45311;-58
2022/08/14 07:34:24;;;;;;;;;5.00;5.00;;;;;24.62;26.91;100171.25;5062029;28;45477;-58
2022/08/14 07:36:50;;;;;;;;;6.25;6.25;;;;;24.65;26.66;100179.94;5062097;28;45264;-58
2022/08/14 07:39:15;;;;;;;;;5.50;5.50;;;;;24.65;26.97;100171.88;5062028;28;45244;-58
2022/08/14 07:41:42;;;;;;;;;9.50;8.00;;;;;24.69;26.64;100160.88;5061849;28;45437;-58
2022/08/14 07:44:10;;;;;;;;;8.00;8.00;;;;;24.74;26.60;100162.22;5061433;28;46168;-58
2022/08/14 07:46:35;;;;;;;;;6.50;5.50;;;;;24.79;26.49;100153.75;5061693;28;45434;-58
2022/08/14 07:49:00;;;;;;;;;6.25;6.25;;;;;24.81;26.53;100147.25;5061746;28;45319;-58
2022/08/14 07:51:25;;;;;;;;;5.50;5.50;;;;;24.87;26.69;100135.16;5068595;28;45458;-58
2022/08/14 07:53:51;;;;;;;;;6.50;5.50;;;;;24.89;26.74;100141.28;5081900;28;45463;-58
2022/08/14 07:56:16;;;;;;;;;6.00;6.00;;;;;24.91;26.86;100143.81;5082057;28;45344;-58
2022/08/14 07:58:42;;;;;;;;;7.00;7.00;;;;;24.93;26.42;100148.09;5081597;28;45795;-58
2022/08/14 08:01:08;;;;;;;;;8.50;7.00;;;;;24.98;26.98;100148.56;5074817;28;45344;-58
2022/08/14 08:03:35;;;;;;;;;7.75;6.00;;;;;25.04;26.75;100149.00;5066670;27;46272;-58
2022/08/14 08:06:01;;;;;;;;;8.00;8.00;;;;;25.06;26.91;100145.22;5061376;28;45220;-58
2022/08/14 08:08:29;;;;;;;;;6.75;5.00;;;;;25.10;27.34;100154.72;5060173;28;45245;-58
2022/08/14 08:10:58;;;;;;;;;5.75;5.75;;;;;25.14;27.33;100161.56;5061295;28;45239;-58
2022/08/14 08:13:25;;;;;;;;;8.00;8.00;;;;;25.23;26.83;100167.97;5060956;28;47149;-58
2022/08/14 08:15:56;;;;;;;;;10.50;8.75;;;;;25.33;27.12;100162.66;5060819;28;45239;-58
2022/08/14 08:18:22;;;;;;;;;9.00;7.25;;;;;25.40;27.26;100152.25;5061195;28;45386;-58
2022/08/14 08:20:53;;;;;;;;;3.00;3.00;;;;;25.48;26.98;100176.66;5061320;28;45473;-58
2022/08/14 08:23:20;;;;;;;;;8.75;7.50;;;;;25.55;28.05;100172.44;5060868;28;46108;-58
2022/08/14 08:25:48;;;;;;;;;9.00;9.00;;;;;25.63;27.85;100174.47;5059600;28;45366;-58
2022/08/14 08:28:26;;;;;;;;;10.25;8.75;;;;;25.76;28.09;100174.25;5061023;28;45407;-58
2022/08/14 08:30:58;;;;;;;;;12.25;10.50;;;;;25.84;28.62;100158.28;5060532;28;45352;-58
2022/08/14 08:33:27;;;;;;;;;10.50;8.00;;;;;25.91;29.25;100166.66;5060904;28;45457;-58
2022/08/14 08:35:57;;;;;;;;;4.00;4.00;;;;;26.02;29.65;100166.56;5060984;28;45223;-58
2022/08/14 08:38:24;;;;;;;;;7.75;7.75;;;;;26.11;29.64;100148.78;5061256;28;45419;-58
2022/08/14 08:40:53;;;;;;;;;11.00;8.00;;;;;26.25;29.45;100148.41;5060573;28;45390;-57
2022/08/14 08:43:30;;;;;;;;;11.00;9.75;;;;;26.35;29.81;100136.78;5060574;28;47149;-58
2022/08/14 08:45:59;;;;;;;;;7.50;6.25;;;;;26.44;29.98;100130.59;5060366;28;45370;-57
2022/08/14 08:48:29;;;;;;;;;6.50;6.50;;;;;26.53;30.44;100123.53;5059481;28;45321;-59
2022/08/14 08:50:57;;;;;;;;;9.00;6.75;;;;;26.68;30.58;100135.56;5064329;28;45348;-58
2022/08/14 08:53:30;;;;;;;;;11.25;9.50;;;;;26.78;30.09;100127.53;5080829;27;45467;-58
2022/08/14 08:55:55;;;;;;;;;7.25;6.75;;;;;26.89;29.97;100130.09;5080934;28;45391;-58
2022/08/14 08:58:21;;;;;;;;;9.25;8.00;;;;;26.99;30.73;100134.59;5080833;28;45315;-58
2022/08/14 09:00:49;;;;;;;;;14.00;12.25;;;;;27.14;30.46;100135.00;5080186;28;45606;-58
2022/08/14 09:03:19;;;;;;;;;11.75;10.25;;;;;27.24;30.87;100123.22;5066498;28;46972;-58
2022/08/14 09:06:02;;;;;;;;;8.25;8.25;;;;;27.38;30.67;100129.13;5079760;28;45279;-58
2022/08/14 09:08:30;;;;;;;;;8.25;8.25;;;;;27.53;30.44;100126.84;5080755;27;45271;-58
2022/08/14 09:10:58;;;;;;;;;8.00;7.00;;;;;27.67;31.07;100136.31;5080567;28;45284;-58
2022/08/14 09:13:26;;;;;;;;;7.25;6.00;;;;;27.78;31.40;100124.50;5080355;28;46010;-59
2022/08/14 09:15:53;;;;;;;;;6.75;6.50;;;;;27.92;30.50;100131.25;5080572;28;45233;-58
2022/08/14 09:18:21;;;;;;;;;9.00;9.00;;;;;28.02;30.94;100129.34;5079295;28;45323;-58
2022/08/14 09:20:49;;;;;;;;;8.50;8.50;;;;;28.16;30.70;100122.63;5080497;28;45346;-58
2022/08/14 09:23:15;;;;;;;;;6.75;6.50;;;;;28.28;30.38;100137.63;5080457;28;46554;-58
2022/08/14 09:25:43;;;;;;;;;8.50;8.50;;;;;28.38;30.32;100133.00;5080264;28;45242;-58
2022/08/14 09:28:09;;;;;;;;;8.25;6.00;;;;;28.47;29.75;100135.81;5062123;28;45244;-57
2022/08/14 09:30:40;;;;;;;;;6.00;4.50;;;;;28.57;29.75;100136.56;5070117;28;45416;-57
2022/08/14 09:33:24;;;;;;;;;8.50;8.50;;;;;28.66;29.76;100142.91;5079936;28;45420;-57
2022/08/14 09:36:00;;;;;;;;;7.00;7.00;;;;;28.75;29.56;100143.88;5080253;28;45376;-57
2022/08/14 09:38:38;;;;;;;;;6.75;6.75;;;;;28.80;29.50;100152.38;5080385;28;45316;-57
2022/08/14 09:41:17;;;;;;;;;8.50;8.00;;;;;28.88;29.59;100148.88;5079944;28;45239;-57
2022/08/14 09:44:04;;;;;;;;;7.50;7.50;;;;;28.97;29.47;100145.25;5079758;28;46405;-57
2022/08/14 09:46:30;;;;;;;;;8.50;7.00;;;;;29.06;29.19;100136.19;5079926;28;45480;-57
2022/08/14 09:49:04;;;;;;;;;7.00;6.75;;;;;29.16;29.15;100136.09;5080176;28;45286;-57
2022/08/14 09:51:31;;;;;;;;;10.00;10.00;;;;;29.25;29.01;100124.31;5070143;28;45280;-58
2022/08/14 09:54:08;;;;;;;;;8.50;7.00;;;;;29.35;29.09;100129.69;5063975;28;46611;-57
2022/08/14 09:56:50;;;;;;;;;6.50;6.50;;;;;29.43;28.94;100118.06;5059615;28;45262;-57
2022/08/14 09:59:21;;;;;;;;;8.25;6.00;;;;;29.56;28.75;100112.19;5078052;28;45283;-56
2022/08/14 10:01:48;;;;;;;;;8.00;6.50;;;;;29.66;28.79;100108.38;5073977;27;45406;-58
2022/08/14 10:04:32;;;;;;;;;5.25;5.00;;;;;29.78;28.72;100108.91;5058249;28;46310;-58
2022/08/14 10:06:57;;;;;;;;;7.00;7.00;;;;;29.95;28.29;100112.59;5059591;28;45313;-58
2022/08/14 10:09:22;;;;;;;;;9.00;7.00;;;;;30.03;28.37;100111.75;5059663;28;45264;-58
2022/08/14 10:11:57;;;;;;;;;10.00;8.75;;;;;30.11;27.87;100103.69;5059611;28;45526;-58
2022/08/14 10:14:27;;;;;;;;;6.75;6.00;;;;;30.30;27.77;100113.38;5059123;28;46418;-58
2022/08/14 10:16:55;;;;;;;;;8.00;8.00;;;;;30.42;27.52;100110.34;5062864;28;45454;-58
2022/08/14 10:19:26;;;;;;;;;7.25;7.25;;;;;30.48;27.50;100132.22;5062016;28;45308;-58
2022/08/14 10:22:06;;;;;;;;;7.75;7.00;;;;;30.58;27.63;100133.94;5062989;28;45497;-58
2022/08/14 10:24:38;;;;;;;;;5.50;5.50;;;;;30.65;26.88;100143.09;5062644;28;45518;-58
2022/08/14 10:27:15;;;;;;;;;6.75;6.25;;;;;30.70;27.10;100137.19;5063146;28;45322;-57
2022/08/14 10:29:42;;;;;;;;;6.75;6.75;;;;;30.75;26.91;100137.53;5061445;28;45331;-58
2022/08/14 10:32:10;;;;;;;;;6.50;5.50;;;;;30.83;26.72;100144.81;5062784;28;45386;-58
2022/08/14 10:34:38;;;;;;;;;8.50;6.00;;;;;30.89;26.84;100141.44;5062656;28;46927;-57
2022/08/14 10:37:12;;;;;;;;;5.50;5.25;;;;;30.89;26.64;100136.00;5069209;28;45399;-58
2022/08/14 10:39:40;;;;;;;;;6.75;6.75;;;;;30.99;26.58;100143.97;5062986;28;45331;-59
2022/08/14 10:42:11;;;;;;;;;5.75;5.75;;;;;31.05;26.13;100146.84;5061116;28;45549;-58
2022/08/14 10:44:44;;;;;;;;;11.50;8.25;;;;;31.15;26.82;100135.84;5062245;28;45296;-58
2022/08/14 10:47:11;;;;;;;;;8.00;6.75;;;;;31.26;26.56;100142.81;5062292;28;45347;-58
2022/08/14 10:49:48;;;;;;;;;8.00;7.00;;;;;31.33;26.48;100141.06;5062708;28;45248;-58
2022/08/14 10:52:23;;;;;;;;;7.75;6.25;;;;;31.41;26.63;100132.94;5077560;28;45236;-58
2022/08/14 10:54:50;;;;;;;;;7.00;7.00;;;;;31.51;26.48;100148.19;5082633;28;46250;-58
2022/08/14 10:57:24;;;;;;;;;6.00;4.50;;;;;31.57;26.72;100147.47;5082795;27;45399;-58
2022/08/14 10:59:56;;;;;;;;;8.75;7.00;;;;;31.58;26.42;100139.16;5082428;28;45289;-58
2022/08/14 11:02:35;;;;;;;;;6.00;6.00;;;;;31.58;26.39;100149.19;5077575;28;45150;-58
2022/08/14 11:05:02;;;;;;;;;8.25;6.75;;;;;31.57;26.56;100152.91;5062152;28;46331;-59
2022/08/14 11:07:29;;;;;;;;;6.50;5.75;;;;;31.48;26.81;100148.53;5069259;28;45327;-59
2022/08/14 11:09:57;;;;;;;;;9.25;7.00;;;;;31.48;26.96;100153.97;5082528;28;45378;-58
2022/08/14 11:12:25;;;;;;;;;6.50;6.50;;;;;31.46;26.08;100154.13;5082765;28;45178;-58
2022/08/14 11:14:51;;;;;;;;;7.50;7.50;;;;;31.42;26.98;100152.78;5082238;28;46324;-58
2022/08/14 11:17:17;;;;;;;;;10.00;7.50;;;;;31.39;26.51;100145.00;5073385;28;45347;-59
2022/08/14 11:19:44;;;;;;;;;6.50;5.75;;;;;31.36;26.95;100159.75;5076980;28;45275;-58
2022/08/14 11:22:10;;;;;;;;;8.75;8.25;;;;;31.33;27.05;100156.53;5082630;28;45256;-58
2022/08/14 11:24:40;;;;;;;;;5.50;5.00;;;;;31.27;27.05;100152.63;5082175;28;46199;-58
2022/08/14 11:27:06;;;;;;;;;9.25;9.25;;;;;31.17;27.02;100149.25;5081957;28;45361;-58
2022/08/14 11:29:34;;;;;;;;;8.50;8.00;;;;;31.10;26.77;100155.34;5082123;28;45378;-58
2022/08/14 11:32:01;;;;;;;;;2.25;2.25;;;;;31.05;26.76;100151.44;5082039;28;45358;-58
2022/08/14 11:34:26;;;;;;;;;8.50;7.75;;;;;30.99;26.94;100154.81;5080736;28;46242;-58
2022/08/14 11:36:51;;;;;;;;;8.00;8.00;;;;;30.97;27.18;100163.13;5082194;28;45267;-58
2022/08/14 11:39:19;;;;;;;;;6.75;4.00;;;;;30.87;26.97;100160.59;5082226;28;45512;-58
2022/08/14 11:41:45;;;;;;;;;7.50;6.25;;;;;30.85;27.63;100153.63;5071955;28;45552;-58
2022/08/14 11:44:10;;;;;;;;;13.00;9.50;;;;;30.82;27.37;100156.66;5077106;28;45841;-58